aviador You're here:

LFKJ Decoded Metar

AJACCIO in CORSE ISL.
Report Time2017-10-22 16:30:00
UTC Time2017-10-22 17:05:40
Flight Rules vfr VFR
Wind280° at 17 kt
W.Decomp.*RWY 20: 3.2 kt HW 16.7 kt RCW
W.Rank280° ranks 18
Current wind is above 280° avg. (8.7)
Visibility9999 m
Phenomena:N/A
Clouds:Scattered 046 Hf
Scattered 052 Hf
Broken 062 Hf
Expected CloudBase > 3,600 ft AGL from Temp-Dew spread
Ceiling6,200 ft
Temp18°C (ISA +3)
Dew Point09°C (56% RH)
AAT11.7°C
QNH1016 hPa
Density Alt443 ft
Elevation30 ft
Report Wrong Elevation
Raw Report
LFKJ 221630Z AUTO 28017KT 9999 SCT046 SCT052 BKN062 18/09 Q1016
TEMPO 30014G24KT=

Extra information for LFKJ:More info

Metar Taf Metar & Taf Last 4 Metars F.Rules Stats Wind Profile Meteogram Temp Stats Airport Information Weather charts Add Link Nearby VenuesMetar ALERT Operation Metar Decoded Social comments